Blackhawk, California
Current Conditions -  °F | °C
As of 12:53 PM on Sunday 23 Nov 2014 (Local Time) from KLVK Reporting Station
Clear Clear  
Wind Chill: 64°   Ceiling: Unl
Heat Index: 64°   Visibility: 10mi
Dew Point: 38°   Wind: 9mph
Humidity: 38%   Direction: 60°ENE
Pressure: 30.29"   Gusts: NA
Location:  37.8002°N, 121.903°W
Report Text: KLVK 232053Z 06008KT 10SM CLR 18/03 A3029 RMK AO2 SLP255 T01780033 58016 $
Loading
Personal Weather Stations






























Interactive Weather Map New forecast layout! Learn more

10-Day Weather Forecast

Advertisements
Track Severe Weather on mobile